Time;durP1;ratioP1;P1;durP2;ratioP2;P2;SDS_P1;SDS_P2;PMS_P1;PMS_P2;Temp;Humidity;BMP_temperature;BMP_pressure;BME280_temperature;BME280_humidity;BME280_pressure;Samples;Min_cycle;Max_cycle;Signal;HPM_P1;HPM_P2
2023/09/22 00:02:10;;;;;;;;;;;24.80;99.90;;;;;;5036008;28;19917;-60
2023/09/22 00:04:36;;;;;;;;;;;24.80;99.90;;;;;;5023789;28;19912;-57
2023/09/22 00:07:01;;;;;;;;;;;24.80;99.90;;;;;;5017764;28;19905;-56
2023/09/22 00:09:27;;;;;;;;;;;24.80;99.90;;;;;;5020598;28;20347;-56
2023/09/22 00:11:53;;;;;;;;;;;24.70;99.90;;;;;;5034198;28;19916;-60
2023/09/22 00:14:18;;;;;;;;;;;24.70;99.90;;;;;;5020732;28;19911;-61
2023/09/22 00:16:44;;;;;;;;;;;24.70;99.90;;;;;;5027998;28;19972;-61
2023/09/22 00:19:10;;;;;;;;;;;24.70;99.90;;;;;;5020236;28;19912;-60
2023/09/22 00:21:35;;;;;;;;;;;24.70;99.90;;;;;;5034624;28;20334;-61
2023/09/22 00:24:02;;;;;;;;;;;24.70;99.90;;;;;;5014634;28;19909;-58
2023/09/22 00:26:28;;;;;;;;;;;24.70;99.90;;;;;;5014813;28;19905;-58
2023/09/22 00:28:53;;;;;;;;;;;24.70;99.90;;;;;;5033934;28;19912;-64
2023/09/22 00:31:19;;;;;;;;;;;24.70;99.90;;;;;;5034226;28;19956;-61
2023/09/22 00:33:45;;;;;;;;;;;24.70;99.90;;;;;;5035018;28;19905;-61
2023/09/22 00:36:10;;;;;;;;;;;24.70;99.90;;;;;;5034630;28;19909;-62
2023/09/22 00:38:36;;;;;;;;;;;24.70;99.90;;;;;;5034184;28;19909;-61
2023/09/22 00:41:01;;;;;;;;;;;24.60;99.90;;;;;;5034882;28;19909;-62
2023/09/22 00:43:27;;;;;;;;;;;24.70;99.90;;;;;;5028982;28;19906;-60
2023/09/22 00:45:53;;;;;;;;;;;24.60;99.90;;;;;;5030963;28;19905;-60
2023/09/22 00:48:30;;;;;;;;;;;24.60;99.90;;;;;;5029509;28;19909;-60
2023/09/22 00:50:56;;;;;;;;;;;24.60;99.90;;;;;;5033399;28;19947;-61
2023/09/22 00:53:25;;;;;;;;;;;24.60;99.90;;;;;;5031910;28;19909;-63
2023/09/22 00:55:51;;;;;;;;;;;24.60;99.90;;;;;;5034238;28;19962;-61
2023/09/22 00:58:17;;;;;;;;;;;24.60;99.90;;;;;;5027421;28;19914;-59
2023/09/22 01:00:47;;;;;;;;;;;24.60;99.90;;;;;;5036560;22;20387;-56
2023/09/22 01:03:14;;;;;;;;;;;24.60;99.90;;;;;;4998825;28;19956;-55
2023/09/22 01:05:40;;;;;;;;;;;24.50;99.90;;;;;;5000278;28;19905;-53
2023/09/22 01:08:12;;;;;;;;;;;24.50;99.90;;;;;;5000845;28;19909;-57
2023/09/22 01:10:38;;;;;;;;;;;24.50;99.90;;;;;;5009898;28;20431;-57
2023/09/22 01:13:05;;;;;;;;;;;24.50;99.90;;;;;;4992413;28;19913;-54
2023/09/22 01:15:34;;;;;;;;;;;24.50;99.90;;;;;;5029579;28;19908;-58
2023/09/22 01:18:00;;;;;;;;;;;24.50;99.90;;;;;;5013084;28;20017;-56
2023/09/22 01:20:25;;;;;;;;;;;24.50;99.90;;;;;;5010845;28;20388;-57
2023/09/22 01:22:51;;;;;;;;;;;24.50;99.90;;;;;;5010826;28;19948;-54
2023/09/22 01:25:17;;;;;;;;;;;24.50;99.90;;;;;;5007126;28;19941;-58
2023/09/22 01:27:42;;;;;;;;;;;24.50;99.90;;;;;;5013703;28;19993;-57
2023/09/22 01:30:09;;;;;;;;;;;24.50;99.90;;;;;;5014161;28;20326;-58
2023/09/22 01:32:37;;;;;;;;;;;24.50;99.90;;;;;;5016272;28;20372;-57
2023/09/22 01:35:04;;;;;;;;;;;24.60;99.90;;;;;;5014812;28;20367;-57
2023/09/22 01:37:32;;;;;;;;;;;24.60;99.90;;;;;;5004394;28;20379;-57
2023/09/22 01:39:58;;;;;;;;;;;24.60;99.90;;;;;;5002376;28;20003;-57
2023/09/22 01:42:24;;;;;;;;;;;24.60;99.90;;;;;;5001450;28;20000;-58
2023/09/22 01:44:49;;;;;;;;;;;24.60;99.90;;;;;;4998420;28;20284;-57
2023/09/22 01:47:15;;;;;;;;;;;24.70;99.90;;;;;;4999116;28;19906;-57
2023/09/22 01:49:41;;;;;;;;;;;24.70;99.90;;;;;;4995867;28;19917;-58
2023/09/22 01:52:06;;;;;;;;;;;24.70;99.90;;;;;;4995435;28;19910;-58
2023/09/22 01:54:32;;;;;;;;;;;24.70;99.90;;;;;;5004270;28;19969;-58
2023/09/22 01:56:57;;;;;;;;;;;24.80;99.90;;;;;;5010611;28;19960;-58
2023/09/22 01:59:23;;;;;;;;;;;24.80;99.90;;;;;;5014991;28;20303;-58
2023/09/22 02:01:49;;;;;;;;;;;24.90;99.90;;;;;;5014113;28;19921;-58
2023/09/22 02:04:14;;;;;;;;;;;24.90;99.90;;;;;;4995206;28;19906;-58
2023/09/22 02:06:40;;;;;;;;;;;25.00;99.90;;;;;;4996277;28;19913;-58
2023/09/22 02:09:05;;;;;;;;;;;25.00;99.90;;;;;;5012914;28;19912;-58
2023/09/22 02:11:31;;;;;;;;;;;25.00;99.90;;;;;;5013725;28;20385;-57
2023/09/22 02:13:57;;;;;;;;;;;25.00;99.90;;;;;;5013439;28;19909;-58
2023/09/22 02:16:22;;;;;;;;;;;25.00;99.90;;;;;;5013881;28;19921;-57
2023/09/22 02:18:48;;;;;;;;;;;25.00;99.90;;;;;;5013553;28;20280;-58
2023/09/22 02:21:17;;;;;;;;;;;25.00;99.90;;;;;;5013069;28;19916;-58
2023/09/22 02:23:43;;;;;;;;;;;25.00;99.90;;;;;;5013403;28;19913;-57
2023/09/22 02:26:08;;;;;;;;;;;25.00;99.90;;;;;;5013214;28;19905;-57
2023/09/22 02:28:34;;;;;;;;;;;25.00;99.90;;;;;;5013592;28;19906;-58
2023/09/22 02:31:00;;;;;;;;;;;25.00;99.90;;;;;;5013444;28;19959;-58
2023/09/22 02:33:25;;;;;;;;;;;25.00;99.90;;;;;;5013591;28;20366;-57
2023/09/22 02:35:51;;;;;;;;;;;25.00;99.90;;;;;;5013293;28;19932;-57
2023/09/22 02:38:17;;;;;;;;;;;25.00;99.90;;;;;;5013278;28;19910;-57
2023/09/22 02:40:44;;;;;;;;;;;25.00;99.90;;;;;;4995748;28;19913;-57
2023/09/22 02:43:09;;;;;;;;;;;25.00;99.90;;;;;;4995591;28;19905;-56
2023/09/22 02:45:39;;;;;;;;;;;25.00;99.90;;;;;;5013202;28;20272;-57
2023/09/22 02:48:05;;;;;;;;;;;25.10;99.90;;;;;;5012941;28;19933;-57
2023/09/22 02:50:31;;;;;;;;;;;25.10;99.90;;;;;;5012779;28;19914;-57
2023/09/22 02:52:57;;;;;;;;;;;25.20;99.90;;;;;;5012898;28;19913;-57
2023/09/22 02:55:22;;;;;;;;;;;25.30;99.90;;;;;;5012866;28;19987;-57
2023/09/22 02:57:48;;;;;;;;;;;25.30;99.90;;;;;;5012532;28;19913;-57
2023/09/22 03:02:48;;;;;;;;;;;25.30;99.90;;;;;;5030567;28;19992;-58
2023/09/22 03:05:17;;;;;;;;;;;25.30;99.90;;;;;;5032200;28;19928;-58
2023/09/22 03:07:43;;;;;;;;;;;25.20;99.90;;;;;;5031938;28;19908;-58
2023/09/22 03:10:10;;;;;;;;;;;25.00;99.90;;;;;;5032051;28;19996;-60
2023/09/22 03:12:37;;;;;;;;;;;24.90;99.90;;;;;;5032080;28;19905;-58
2023/09/22 03:15:04;;;;;;;;;;;24.80;99.90;;;;;;5014509;28;19916;-58
2023/09/22 03:17:30;;;;;;;;;;;24.70;99.90;;;;;;5014080;28;19913;-59
2023/09/22 03:19:58;;;;;;;;;;;24.60;99.90;;;;;;5032575;28;19905;-58
2023/09/22 03:22:24;;;;;;;;;;;24.50;99.90;;;;;;5032227;28;19940;-59
2023/09/22 03:24:50;;;;;;;;;;;24.50;99.90;;;;;;5032023;28;19975;-58
2023/09/22 03:27:16;;;;;;;;;;;24.40;99.90;;;;;;5032133;28;20344;-59
2023/09/22 03:29:41;;;;;;;;;;;24.30;99.90;;;;;;5032015;28;19905;-58
2023/09/22 03:32:07;;;;;;;;;;;24.30;99.90;;;;;;5031990;28;19909;-58
2023/09/22 03:34:33;;;;;;;;;;;24.20;99.90;;;;;;5013682;28;19959;-58
2023/09/22 03:36:59;;;;;;;;;;;24.20;99.90;;;;;;5031926;28;20300;-59
2023/09/22 03:39:27;;;;;;;;;;;24.20;99.90;;;;;;5032481;28;19905;-59
2023/09/22 03:41:54;;;;;;;;;;;24.10;99.90;;;;;;5031974;28;19905;-59
2023/09/22 03:44:20;;;;;;;;;;;24.10;99.90;;;;;;5031897;28;19958;-58
2023/09/22 03:46:46;;;;;;;;;;;24.10;99.90;;;;;;5031761;28;19909;-58
2023/09/22 03:49:11;;;;;;;;;;;24.10;99.90;;;;;;5031890;28;19911;-59
2023/09/22 03:51:37;;;;;;;;;;;24.10;99.90;;;;;;5029863;28;19912;-59
2023/09/22 03:54:02;;;;;;;;;;;24.10;99.90;;;;;;5030452;28;19909;-58
2023/09/22 03:56:28;;;;;;;;;;;24.10;99.90;;;;;;5029662;28;20330;-59
2023/09/22 03:58:54;;;;;;;;;;;24.10;99.90;;;;;;5031786;28;19993;-60
2023/09/22 04:01:20;;;;;;;;;;;24.10;99.90;;;;;;5031117;28;19943;-60
2023/09/22 04:03:45;;;;;;;;;;;24.10;99.90;;;;;;5030134;28;19905;-59
2023/09/22 04:06:11;;;;;;;;;;;24.10;99.90;;;;;;5030015;28;19905;-59
2023/09/22 04:08:36;;;;;;;;;;;24.10;99.90;;;;;;5029990;28;19905;-60
2023/09/22 04:11:02;;;;;;;;;;;24.10;99.90;;;;;;5032316;28;20302;-59
2023/09/22 04:13:29;;;;;;;;;;;24.10;99.90;;;;;;5030507;28;19905;-59
2023/09/22 04:15:58;;;;;;;;;;;24.10;99.90;;;;;;5030642;28;19913;-59
2023/09/22 04:18:26;;;;;;;;;;;24.10;99.90;;;;;;5029752;28;19936;-58
2023/09/22 04:20:51;;;;;;;;;;;24.10;99.90;;;;;;5027864;28;19905;-60
2023/09/22 04:23:17;;;;;;;;;;;24.00;99.90;;;;;;5030703;28;19974;-59
2023/09/22 04:25:43;;;;;;;;;;;24.10;99.90;;;;;;5030926;28;19916;-59
2023/09/22 04:28:11;;;;;;;;;;;24.10;99.90;;;;;;5013439;28;19909;-58
2023/09/22 04:30:37;;;;;;;;;;;24.10;99.90;;;;;;5029977;28;20286;-60
2023/09/22 04:33:03;;;;;;;;;;;24.10;99.90;;;;;;5029515;28;20371;-60
2023/09/22 04:35:32;;;;;;;;;;;24.10;99.90;;;;;;5030191;28;19912;-60
2023/09/22 04:38:01;;;;;;;;;;;24.00;99.90;;;;;;5010009;28;20036;-59
2023/09/22 04:40:35;;;;;;;;;;;24.00;99.90;;;;;;5029489;28;19940;-60
2023/09/22 04:43:01;;;;;;;;;;;24.00;99.90;;;;;;5030219;28;19909;-60
2023/09/22 04:45:26;;;;;;;;;;;24.00;99.90;;;;;;5031430;28;19990;-59
2023/09/22 04:47:52;;;;;;;;;;;24.00;99.90;;;;;;5025475;28;19905;-59
2023/09/22 04:50:18;;;;;;;;;;;24.00;99.90;;;;;;5033960;28;19906;-59
2023/09/22 04:52:44;;;;;;;;;;;24.00;99.90;;;;;;5034170;28;19905;-58
2023/09/22 04:55:10;;;;;;;;;;;24.00;99.90;;;;;;5014135;28;20000;-59
2023/09/22 04:57:36;;;;;;;;;;;23.90;99.90;;;;;;5033310;28;19912;-59
2023/09/22 05:00:08;;;;;;;;;;;23.90;99.90;;;;;;5033479;28;20000;-60
2023/09/22 05:02:34;;;;;;;;;;;23.90;99.90;;;;;;5022619;28;20007;-60
2023/09/22 05:05:01;;;;;;;;;;;23.80;99.90;;;;;;5034230;28;19935;-59
2023/09/22 05:07:28;;;;;;;;;;;23.80;99.90;;;;;;5032666;28;19996;-60
2023/09/22 05:09:54;;;;;;;;;;;23.80;99.90;;;;;;5033920;28;19944;-59
2023/09/22 05:12:19;;;;;;;;;;;23.70;99.90;;;;;;5032705;28;19956;-60
2023/09/22 05:14:45;;;;;;;;;;;23.70;99.90;;;;;;5033299;28;19923;-59
2023/09/22 05:17:12;;;;;;;;;;;23.60;99.90;;;;;;5033129;28;19966;-59
2023/09/22 05:19:38;;;;;;;;;;;23.60;99.90;;;;;;5015584;28;19912;-58
2023/09/22 05:22:04;;;;;;;;;;;23.60;99.90;;;;;;5032826;28;19909;-60
2023/09/22 05:24:31;;;;;;;;;;;23.50;99.90;;;;;;5032758;28;19916;-59
2023/09/22 05:26:56;;;;;;;;;;;23.50;99.90;;;;;;5033248;28;19905;-59
2023/09/22 05:29:22;;;;;;;;;;;23.50;99.90;;;;;;5034013;28;19911;-57
2023/09/22 05:31:48;;;;;;;;;;;23.50;99.90;;;;;;5032331;28;19912;-58
2023/09/22 05:34:14;;;;;;;;;;;23.40;99.90;;;;;;5032700;28;19916;-58
2023/09/22 05:36:41;;;;;;;;;;;23.40;99.90;;;;;;5015135;28;19924;-58
2023/09/22 05:39:06;;;;;;;;;;;23.40;99.90;;;;;;5031914;28;19905;-58
2023/09/22 05:41:32;;;;;;;;;;;23.30;99.90;;;;;;5015317;28;20003;-58
2023/09/22 05:43:58;;;;;;;;;;;23.30;99.90;;;;;;5033110;28;19905;-58
2023/09/22 05:46:23;;;;;;;;;;;23.30;99.90;;;;;;5033189;28;19978;-58
2023/09/22 05:48:49;;;;;;;;;;;23.30;99.90;;;;;;5013943;28;19905;-58
2023/09/22 05:51:15;;;;;;;;;;;23.30;99.90;;;;;;5033613;28;19913;-59
2023/09/22 05:53:41;;;;;;;;;;;23.30;99.90;;;;;;5033422;28;20320;-58
2023/09/22 05:56:07;;;;;;;;;;;23.30;99.90;;;;;;5032544;28;20343;-58
2023/09/22 05:58:33;;;;;;;;;;;23.20;99.90;;;;;;5034043;28;19913;-58
2023/09/22 06:01:06;;;;;;;;;;;23.30;99.90;;;;;;5031870;28;20342;-58
2023/09/22 06:03:34;;;;;;;;;;;23.20;99.90;;;;;;5030879;28;19912;-59
2023/09/22 06:06:04;;;;;;;;;;;23.20;99.90;;;;;;5030723;28;19963;-58
2023/09/22 06:08:30;;;;;;;;;;;23.20;99.90;;;;;;5031793;28;19959;-59
2023/09/22 06:10:56;;;;;;;;;;;23.20;99.90;;;;;;5031775;28;19901;-59
2023/09/22 06:13:23;;;;;;;;;;;23.20;99.90;;;;;;5032669;28;19912;-59
2023/09/22 06:15:48;;;;;;;;;;;23.20;99.90;;;;;;5029901;28;19913;-59
2023/09/22 06:18:16;;;;;;;;;;;23.10;99.90;;;;;;5031021;28;20290;-59
2023/09/22 06:20:41;;;;;;;;;;;23.10;99.90;;;;;;5031975;28;20375;-59
2023/09/22 06:23:08;;;;;;;;;;;23.10;99.90;;;;;;5032196;28;20006;-59
2023/09/22 06:25:34;;;;;;;;;;;23.10;99.90;;;;;;5029923;28;19986;-59
2023/09/22 06:28:00;;;;;;;;;;;23.10;99.90;;;;;;5030676;28;19905;-59
2023/09/22 06:30:25;;;;;;;;;;;23.10;99.90;;;;;;5032147;28;20004;-59
2023/09/22 06:32:51;;;;;;;;;;;23.00;99.90;;;;;;5030478;28;19992;-59
2023/09/22 06:35:17;;;;;;;;;;;23.00;99.90;;;;;;5031227;28;20303;-59
2023/09/22 06:37:43;;;;;;;;;;;23.00;99.90;;;;;;5030814;28;19924;-61
2023/09/22 06:40:12;;;;;;;;;;;23.10;99.90;;;;;;5031765;28;19905;-59
2023/09/22 06:42:42;;;;;;;;;;;23.10;99.90;;;;;;5030671;28;19912;-59
2023/09/22 06:45:09;;;;;;;;;;;23.10;99.90;;;;;;5009903;28;19912;-59
2023/09/22 06:47:35;;;;;;;;;;;23.10;99.90;;;;;;5031671;28;19905;-58
2023/09/22 06:50:05;;;;;;;;;;;23.10;99.90;;;;;;5031484;28;20417;-60
2023/09/22 06:52:31;;;;;;;;;;;23.20;99.90;;;;;;5031441;28;19916;-58
2023/09/22 06:54:56;;;;;;;;;;;23.10;99.90;;;;;;5030745;28;19905;-59
2023/09/22 06:57:23;;;;;;;;;;;23.10;99.90;;;;;;5030565;28;20003;-59
2023/09/22 06:59:51;;;;;;;;;;;23.10;99.90;;;;;;5030639;28;19940;-59
2023/09/22 07:02:17;;;;;;;;;;;23.10;99.90;;;;;;4960274;28;1538358;-58
2023/09/22 07:04:42;;;;;;;;;;;23.10;99.90;;;;;;5031250;28;20359;-59
2023/09/22 07:07:10;;;;;;;;;;;23.00;99.90;;;;;;5032072;28;20359;-59
2023/09/22 07:09:36;;;;;;;;;;;23.10;99.90;;;;;;5013179;28;19913;-58
2023/09/22 07:12:03;;;;;;;;;;;23.10;99.90;;;;;;5031064;28;19924;-59
2023/09/22 07:14:29;;;;;;;;;;;23.10;99.90;;;;;;5031521;28;19912;-59
2023/09/22 07:16:54;;;;;;;;;;;23.10;99.90;;;;;;5031164;28;19913;-59
2023/09/22 07:19:21;;;;;;;;;;;23.10;99.90;;;;;;5031442;28;19905;-60
2023/09/22 07:21:48;;;;;;;;;;;23.00;99.90;;;;;;5013383;28;19913;-59
2023/09/22 07:24:15;;;;;;;;;;;23.00;99.90;;;;;;5031801;28;19913;-59
2023/09/22 07:26:41;;;;;;;;;;;23.00;99.90;;;;;;5032210;28;19905;-61
2023/09/22 07:29:06;;;;;;;;;;;23.00;99.90;;;;;;5011376;28;20382;-60
2023/09/22 07:31:32;;;;;;;;;;;23.00;99.90;;;;;;5027536;28;19909;-60
2023/09/22 07:33:58;;;;;;;;;;;23.00;99.90;;;;;;5031943;28;19965;-60
2023/09/22 07:36:26;;;;;;;;;;;23.00;99.90;;;;;;5030727;28;19913;-60
2023/09/22 07:38:52;;;;;;;;;;;23.10;99.90;;;;;;5031873;28;19916;-58
2023/09/22 07:41:18;;;;;;;;;;;23.20;99.90;;;;;;5031320;28;20394;-58
2023/09/22 07:43:44;;;;;;;;;;;23.30;99.90;;;;;;5031678;28;19944;-58
2023/09/22 07:46:09;;;;;;;;;;;23.30;99.90;;;;;;5030320;28;20256;-60
2023/09/22 07:48:36;;;;;;;;;;;23.40;99.90;;;;;;5030584;28;19916;-60
2023/09/22 07:51:01;;;;;;;;;;;23.50;99.90;;;;;;5031694;28;19909;-60
2023/09/22 07:53:27;;;;;;;;;;;23.60;99.90;;;;;;5031614;28;19916;-59
2023/09/22 07:55:59;;;;;;;;;;;23.70;99.90;;;;;;5030790;28;20370;-59
2023/09/22 07:58:25;;;;;;;;;;;23.80;99.90;;;;;;5030328;28;19963;-59
2023/09/22 08:00:51;;;;;;;;;;;23.90;99.90;;;;;;5017741;28;19986;-57
2023/09/22 08:03:21;;;;;;;;;;;23.90;99.90;;;;;;5029224;28;19960;-58
2023/09/22 08:05:48;;;;;;;;;;;24.00;99.90;;;;;;5036066;28;19912;-58
2023/09/22 08:08:15;;;;;;;;;;;24.10;99.90;;;;;;5036595;28;19978;-58
2023/09/22 08:10:41;;;;;;;;;;;24.10;99.90;;;;;;5044476;28;20356;-58
2023/09/22 08:13:09;;;;;;;;;;;24.30;99.90;;;;;;5036191;28;19934;-58
2023/09/22 08:15:37;;;;;;;;;;;24.30;99.90;;;;;;5011749;28;19951;-58
2023/09/22 08:18:05;;;;;;;;;;;24.30;99.90;;;;;;5030918;28;19932;-57
2023/09/22 08:20:34;;;;;;;;;;;24.30;99.90;;;;;;5033770;28;19912;-56
2023/09/22 08:23:00;;;;;;;;;;;24.30;99.90;;;;;;5035309;28;20359;-56
2023/09/22 08:25:27;;;;;;;;;;;24.20;99.90;;;;;;5035035;28;19916;-55
2023/09/22 08:27:53;;;;;;;;;;;24.20;99.90;;;;;;5035249;28;19909;-58
2023/09/22 08:30:19;;;;;;;;;;;24.20;99.90;;;;;;5034865;28;19909;-58
2023/09/22 08:32:45;;;;;;;;;;;24.20;99.90;;;;;;5034938;28;19912;-60
2023/09/22 08:35:12;;;;;;;;;;;24.10;99.90;;;;;;5034969;28;19905;-59
2023/09/22 08:37:41;;;;;;;;;;;24.10;99.90;;;;;;5034996;28;19913;-58
2023/09/22 08:40:08;;;;;;;;;;;24.10;99.90;;;;;;5034838;28;19960;-61
2023/09/22 08:42:35;;;;;;;;;;;24.10;99.90;;;;;;5034785;28;19904;-60
2023/09/22 08:45:00;;;;;;;;;;;24.10;99.90;;;;;;5030745;28;20306;-61
2023/09/22 08:47:26;;;;;;;;;;;24.10;99.90;;;;;;5028370;28;20387;-60
2023/09/22 08:49:52;;;;;;;;;;;24.10;99.90;;;;;;5030105;28;19959;-60
2023/09/22 08:52:20;;;;;;;;;;;24.10;99.90;;;;;;5033319;28;21461;-60
2023/09/22 08:54:46;;;;;;;;;;;24.10;99.90;;;;;;5032687;28;20391;-60
2023/09/22 08:57:14;;;;;;;;;;;24.10;99.90;;;;;;5032329;28;20007;-60
2023/09/22 08:59:41;;;;;;;;;;;24.10;99.90;;;;;;5032178;28;19952;-60
2023/09/22 09:02:08;;;;;;;;;;;24.10;99.90;;;;;;5032122;28;19925;-60
2023/09/22 09:04:40;;;;;;;;;;;24.10;99.90;;;;;;5032217;28;19905;-60
2023/09/22 09:07:06;;;;;;;;;;;24.10;99.90;;;;;;5032067;28;19925;-61
2023/09/22 09:09:45;;;;;;;;;;;24.10;99.90;;;;;;5031407;28;19905;-60
2023/09/22 09:12:11;;;;;;;;;;;24.10;99.90;;;;;;5032293;28;20306;-61
2023/09/22 09:14:37;;;;;;;;;;;24.10;99.90;;;;;;5032322;28;20352;-59
2023/09/22 09:17:16;;;;;;;;;;;24.20;99.90;;;;;;5032331;28;19912;-59
2023/09/22 09:19:41;;;;;;;;;;;24.20;99.90;;;;;;5032003;28;19971;-60
2023/09/22 09:22:12;;;;;;;;;;;24.30;99.90;;;;;;5031983;28;19912;-60
2023/09/22 09:24:38;;;;;;;;;;;24.40;99.90;;;;;;5013024;28;19920;-59
2023/09/22 09:27:13;;;;;;;;;;;24.50;99.90;;;;;;5032595;28;19932;-58
2023/09/22 09:29:39;;;;;;;;;;;24.50;99.90;;;;;;5034080;28;19905;-58
2023/09/22 09:32:07;;;;;;;;;;;24.70;99.90;;;;;;5034176;28;19928;-59
2023/09/22 09:34:40;;;;;;;;;;;24.70;99.90;;;;;;4997007;28;20000;-59
2023/09/22 09:37:14;;;;;;;;;;;24.80;99.90;;;;;;5020910;28;20248;-60
2023/09/22 09:39:46;;;;;;;;;;;24.90;99.90;;;;;;5034086;28;19948;-60
2023/09/22 09:42:14;;;;;;;;;;;24.90;99.90;;;;;;5020803;28;19905;-60
2023/09/22 09:44:44;;;;;;;;;;;25.00;99.90;;;;;;5033865;28;19909;-59
2023/09/22 09:47:10;;;;;;;;;;;25.00;99.90;;;;;;5033720;28;20020;-60
2023/09/22 09:49:39;;;;;;;;;;;25.10;99.90;;;;;;5033800;28;19905;-60
2023/09/22 09:52:09;;;;;;;;;;;25.20;99.90;;;;;;5033679;28;19927;-60
2023/09/22 09:54:37;;;;;;;;;;;25.20;99.90;;;;;;5033799;28;19945;-59
2023/09/22 09:57:04;;;;;;;;;;;25.30;99.90;;;;;;5033508;28;20421;-57
2023/09/22 09:59:30;;;;;;;;;;;25.30;99.90;;;;;;5033619;28;19905;-59
2023/09/22 10:01:56;;;;;;;;;;;25.30;99.90;;;;;;5033526;28;20347;-57
2023/09/22 10:04:22;;;;;;;;;;;25.30;99.90;;;;;;5033956;28;19905;-60
2023/09/22 10:06:48;;;;;;;;;;;25.30;99.90;;;;;;5033477;28;19905;-56
2023/09/22 10:09:15;;;;;;;;;;;25.30;99.90;;;;;;5033330;28;20000;-59
2023/09/22 10:11:40;;;;;;;;;;;25.40;99.90;;;;;;5033563;28;19905;-58
2023/09/22 10:14:06;;;;;;;;;;;25.40;99.90;;;;;;5033221;28;19911;-59
2023/09/22 10:16:32;;;;;;;;;;;25.40;99.90;;;;;;5033432;28;19920;-60
2023/09/22 10:18:59;;;;;;;;;;;25.40;99.90;;;;;;5033312;28;19959;-58
2023/09/22 10:21:51;;;;;;;;;;;25.40;99.90;;;;;;5015901;28;19958;-61
2023/09/22 10:24:23;;;;;;;;;;;25.40;99.90;;;;;;5033299;28;20027;-58
2023/09/22 10:27:07;;;;;;;;;;;25.50;99.90;;;;;;5019486;28;19911;-59
2023/09/22 10:29:33;;;;;;;;;;;25.50;99.90;;;;;;5033248;28;20289;-59
2023/09/22 10:32:29;;;;;;;;;;;25.60;99.90;;;;;;5033320;28;19905;-59
2023/09/22 10:34:56;;;;;;;;;;;25.70;99.90;;;;;;5033232;28;19905;-58
2023/09/22 10:37:26;;;;;;;;;;;25.70;99.90;;;;;;5033258;28;19913;-59
2023/09/22 10:39:56;;;;;;;;;;;25.80;99.90;;;;;;5032989;28;20262;-60
2023/09/22 10:42:22;;;;;;;;;;;25.80;99.90;;;;;;5032649;28;19905;-61
2023/09/22 10:44:58;;;;;;;;;;;25.90;99.90;;;;;;5032909;28;20275;-60
2023/09/22 10:47:44;;;;;;;;;;;26.00;99.90;;;;;;5033085;28;19909;-60
2023/09/22 10:50:11;;;;;;;;;;;26.10;99.90;;;;;;5031955;28;19905;-60
2023/09/22 10:52:37;;;;;;;;;;;26.10;99.90;;;;;;5032777;28;19911;-60
2023/09/22 10:55:05;;;;;;;;;;;26.20;99.90;;;;;;5032685;28;19909;-59
2023/09/22 10:57:31;;;;;;;;;;;26.20;99.90;;;;;;5032810;28;19917;-60
2023/09/22 10:59:57;;;;;;;;;;;26.30;99.90;;;;;;5032733;28;20000;-59
2023/09/22 11:02:23;;;;;;;;;;;26.40;99.90;;;;;;5011450;28;19917;-59
2023/09/22 11:04:49;;;;;;;;;;;26.40;99.90;;;;;;5012714;28;20352;-59
2023/09/22 11:07:35;;;;;;;;;;;26.40;99.90;;;;;;5011211;28;19920;-60
2023/09/22 11:10:02;;;;;;;;;;;26.40;99.90;;;;;;5010710;28;19968;-59
2023/09/22 11:12:28;;;;;;;;;;;26.50;99.90;;;;;;5012656;28;19905;-61
2023/09/22 11:14:54;;;;;;;;;;;26.50;99.90;;;;;;5012955;28;19916;-60
2023/09/22 11:17:20;;;;;;;;;;;26.50;99.90;;;;;;5012350;28;19913;-59
2023/09/22 11:19:50;;;;;;;;;;;26.50;99.90;;;;;;5011584;28;19912;-59
2023/09/22 11:22:16;;;;;;;;;;;26.60;99.90;;;;;;5012636;28;19988;-59
2023/09/22 11:24:42;;;;;;;;;;;26.60;99.90;;;;;;5012425;28;19996;-59
2023/09/22 11:27:10;;;;;;;;;;;26.70;99.90;;;;;;5012507;28;19910;-58
2023/09/22 11:29:36;;;;;;;;;;;26.80;99.90;;;;;;5012451;28;19902;-59
2023/09/22 11:32:03;;;;;;;;;;;26.80;99.90;;;;;;5012581;28;19996;-59
2023/09/22 11:34:28;;;;;;;;;;;26.90;99.90;;;;;;5012401;28;20269;-59
2023/09/22 11:36:57;;;;;;;;;;;27.00;99.90;;;;;;5012531;28;19916;-58
2023/09/22 11:39:30;;;;;;;;;;;27.00;99.90;;;;;;5011357;28;19909;-58
2023/09/22 11:41:56;;;;;;;;;;;27.10;99.90;;;;;;5012375;28;19936;-59
2023/09/22 11:44:22;;;;;;;;;;;27.20;99.90;;;;;;5012212;28;19906;-58
2023/09/22 11:46:48;;;;;;;;;;;27.30;99.90;;;;;;5012430;28;19916;-59
2023/09/22 11:49:13;;;;;;;;;;;27.40;99.90;;;;;;5012348;28;19909;-58
2023/09/22 11:51:58;;;;;;;;;;;27.50;99.90;;;;;;5012281;28;19928;-59
2023/09/22 11:54:29;;;;;;;;;;;27.50;99.90;;;;;;5013194;28;19917;-60
2023/09/22 11:56:57;;;;;;;;;;;27.60;99.90;;;;;;5016338;28;20291;-58
2023/09/22 11:59:23;;;;;;;;;;;27.60;99.90;;;;;;5016535;28;20425;-58
2023/09/22 12:01:49;;;;;;;;;;;27.70;99.90;;;;;;5014677;28;19917;-57
2023/09/22 12:04:16;;;;;;;;;;;27.80;99.90;;;;;;5014960;28;20370;-59
2023/09/22 12:06:41;;;;;;;;;;;27.80;99.90;;;;;;5016138;28;19905;-59
2023/09/22 12:09:11;;;;;;;;;;;27.90;99.90;;;;;;5016036;28;19906;-60
2023/09/22 12:11:37;;;;;;;;;;;27.90;99.90;;;;;;5016301;28;19905;-60
2023/09/22 12:14:03;;;;;;;;;;;27.90;99.90;;;;;;5015968;28;20010;-59
2023/09/22 12:16:29;;;;;;;;;;;28.00;99.90;;;;;;5015907;28;20064;-59
2023/09/22 12:18:56;;;;;;;;;;;28.00;99.90;;;;;;5016075;28;19916;-60
2023/09/22 12:21:21;;;;;;;;;;;28.10;99.90;;;;;;5016087;28;19906;-59
2023/09/22 12:23:47;;;;;;;;;;;28.10;99.90;;;;;;5015915;28;19909;-59
2023/09/22 12:26:13;;;;;;;;;;;28.10;99.90;;;;;;5015459;28;19916;-59
2023/09/22 12:28:40;;;;;;;;;;;28.20;99.90;;;;;;5015653;28;19906;-58
2023/09/22 12:31:06;;;;;;;;;;;28.20;99.90;;;;;;5015615;28;19905;-58
2023/09/22 12:33:32;;;;;;;;;;;28.30;99.90;;;;;;5015288;28;19906;-59
2023/09/22 12:35:58;;;;;;;;;;;28.30;99.90;;;;;;5015353;28;19910;-60
2023/09/22 12:38:24;;;;;;;;;;;28.30;99.90;;;;;;5015518;28;20372;-59
2023/09/22 12:40:53;;;;;;;;;;;28.30;99.90;;;;;;5014163;28;19906;-59
2023/09/22 12:43:19;;;;;;;;;;;28.30;99.90;;;;;;5015333;28;19967;-60
2023/09/22 12:45:45;;;;;;;;;;;28.30;99.90;;;;;;5015659;28;19910;-59
2023/09/22 12:48:11;;;;;;;;;;;28.30;99.90;;;;;;5015189;28;19905;-60
2023/09/22 12:50:37;;;;;;;;;;;28.30;99.90;;;;;;5015047;28;20413;-60
2023/09/22 12:53:03;;;;;;;;;;;28.40;99.90;;;;;;5011462;28;19913;-60
2023/09/22 12:55:29;;;;;;;;;;;28.40;99.90;;;;;;5025185;28;20012;-60
2023/09/22 12:57:54;;;;;;;;;;;28.50;99.90;;;;;;5014776;28;19914;-59
2023/09/22 13:00:20;;;;;;;;;;;28.50;99.90;;;;;;5013988;28;20064;-60
2023/09/22 13:02:46;;;;;;;;;;;28.60;99.90;;;;;;5033883;28;19924;-60
2023/09/22 13:05:12;;;;;;;;;;;28.60;99.90;;;;;;5034243;28;19905;-60
2023/09/22 13:07:38;;;;;;;;;;;28.60;99.90;;;;;;5032698;28;20363;-60
2023/09/22 13:10:07;;;;;;;;;;;28.70;99.90;;;;;;5034429;28;20370;-60
2023/09/22 13:12:33;;;;;;;;;;;28.70;99.90;;;;;;5034213;28;19905;-60
2023/09/22 13:14:58;;;;;;;;;;;28.80;99.90;;;;;;5034446;28;19905;-61
2023/09/22 13:17:24;;;;;;;;;;;28.80;99.90;;;;;;5034099;28;19975;-60
2023/09/22 13:19:50;;;;;;;;;;;28.80;99.90;;;;;;5034397;28;19912;-60
2023/09/22 13:22:17;;;;;;;;;;;28.80;99.90;;;;;;5034203;28;19921;-60
2023/09/22 13:24:44;;;;;;;;;;;28.80;99.90;;;;;;5034282;28;20055;-60
2023/09/22 13:27:10;;;;;;;;;;;28.80;99.90;;;;;;5034429;28;19967;-60
2023/09/22 13:29:35;;;;;;;;;;;28.80;99.90;;;;;;5016244;28;20287;-60
2023/09/22 13:32:01;;;;;;;;;;;28.80;99.90;;;;;;5034301;28;19905;-60
2023/09/22 13:34:30;;;;;;;;;;;28.80;99.90;;;;;;5034490;28;19905;-60
2023/09/22 13:36:55;;;;;;;;;;;28.80;99.90;;;;;;5016571;28;19912;-61
2023/09/22 13:39:22;;;;;;;;;;;28.80;99.90;;;;;;5034109;28;19909;-60
2023/09/22 13:41:48;;;;;;;;;;;28.80;99.90;;;;;;5033939;28;20390;-60
2023/09/22 13:44:14;;;;;;;;;;;28.80;99.90;;;;;;5033882;28;19909;-60
2023/09/22 13:46:39;;;;;;;;;;;28.80;99.90;;;;;;5033610;28;19959;-60
2023/09/22 13:49:05;;;;;;;;;;;28.80;99.90;;;;;;5033996;28;20240;-60
2023/09/22 13:51:33;;;;;;;;;;;28.80;99.90;;;;;;5033943;28;20347;-61
2023/09/22 13:53:59;;;;;;;;;;;28.90;99.90;;;;;;5015893;28;19912;-60
2023/09/22 13:56:25;;;;;;;;;;;28.90;99.90;;;;;;5033909;28;19909;-60
2023/09/22 13:58:50;;;;;;;;;;;28.90;99.90;;;;;;5033603;28;20408;-60
2023/09/22 14:01:17;;;;;;;;;;;28.90;99.90;;;;;;5033664;28;19925;-61
2023/09/22 14:03:42;;;;;;;;;;;28.90;99.90;;;;;;5033461;28;20282;-61
2023/09/22 14:06:12;;;;;;;;;;;28.90;99.90;;;;;;5015817;28;19905;-60
2023/09/22 14:08:37;;;;;;;;;;;29.00;99.90;;;;;;5033381;28;20367;-61
2023/09/22 14:11:03;;;;;;;;;;;29.00;99.90;;;;;;5033527;28;19916;-60
2023/09/22 14:13:30;;;;;;;;;;;29.00;99.90;;;;;;5033547;28;20414;-59
2023/09/22 14:15:55;;;;;;;;;;;29.00;99.90;;;;;;5015892;28;20367;-60
2023/09/22 14:18:21;;;;;;;;;;;28.90;99.90;;;;;;5032615;28;19920;-60